x

Matinicus Rock, Me (mism1) Weather Station

3:00 - Sat 1st Oct 2016 All times are EDT. -4 hours from GMT.

  • Wind
    17mph, 18mph gusts
  • Ar Temp 54°f
  • Sea Pressure 1025.7mb
  • Matinicus Rock, Me
  • Matinicus Rock, Me

More Historic Weather Station data

Upgrade to MSW Pro to gain access to the past 30 days of data for over 8000 Wavebouys and Weather Stations around the globe.

Join Pro

Comparision Forecast

View Surf forecast
   
Sáb 10/01 3:00 17 18 mph 1025.7mb 54f
2:00 15 17 mph 1026.2mb 55f
1:00 14 15 mph 1026.9mb 55f
12:00 16
mph
1027.3mb 55f
11:00 16 17 mph 1027.7mb 56f
10:00 14
mph
1028mb 55f
9:00 18
mph
1027.9mb 54f
8:00 17 18 mph 1028.2mb 54f
7:00 18 20 mph 1028.2mb 54f
6:00 16 17 mph 1028.2mb 54f
5:00 15 16 mph 1028.3mb 54f
4:00 16 17 mph 1028.4mb 54f
3:00 13 14 mph 1028.9mb 54f
2:00 13 14 mph 1029.4mb 54f
1:00 13 14 mph 1029.7mb 54f
12:00 14 15 mph 1029.7mb 54f
Sex 09/30 11:00 11
mph
1030.4mb 54f
10:00 10 11 mph 1030.7mb 54f
9:00 11 13 mph 1030.6mb 54f
8:00 13 14 mph 1030.6mb 54f
7:00 11 13 mph 1030.8mb 54f
6:00 14
mph
1030.9mb 54f
5:00 14 15 mph 1031.1mb 54f
4:00 15 16 mph 1031.5mb 54f
3:00 16
mph
1032mb 53f
2:00 18 20 mph 1032.3mb 53f
1:00 17 20 mph 1032.6mb 54f
12:00 21 22 mph 1033.1mb 53f
11:00 20 21 mph 1033.4mb 53f
10:00 20 21 mph 1033.5mb 53f
9:00 20 21 mph 1033.6mb 53f
8:00 18 21 mph 1033.1mb 53f
7:00 17 20 mph 1033.1mb 53f
6:00 16 17 mph 1033.2mb 53f
5:00 16 18 mph 1033.1mb 53f
4:00 15 16 mph 1033mb 53f
3:00 14 16 mph 1033.2mb 54f
2:00 14 16 mph 1033.5mb 55f
1:00 13 14 mph 1033.7mb 55f
12:00 13 14 mph 1033.6mb 54f
Qui 09/29 11:00 9
mph
1033.9mb 54f
10:00 11
mph
1033.8mb 54f
9:00 13
mph
1033.3mb 55f
8:00 7 8 mph 1033.3mb 54f
7:00 9 10 mph 1033.1mb 55f
6:00 6
mph
1032.8mb 55f
5:00 6 7 mph 1032.6mb 57f
4:00 8
mph
1032.4mb 56f
3:00 7 8 mph 1032.7mb 57f
2:00 11 13 mph 1032.5mb 56f
1:00 16 20 mph 1032.6mb 56f
12:00 16 21 mph 1032.7mb 54f
11:00 20 22 mph 1032.6mb 53f
10:00 21 23 mph 1032.5mb 52f
9:00 23 26 mph 1031.8mb 51f
8:00 23 26 mph 1031.3mb 51f
7:00 24 26 mph 1030.6mb 51f
6:00 25 28 mph 1029.7mb 51f
5:00 24 30 mph 1029.2mb 51f
4:00 26 30 mph 1028.7mb 51f
3:00 24 28 mph 1029mb 52f
2:00 23 25 mph 1029.1mb 53f
1:00 24 29 mph 1028.8mb 53f
12:00 25 30 mph 1028.8mb 54f
Qua 09/28 11:00 24 28 mph 1028.7mb 55f
10:00 29 32 mph 1028.2mb 55f
9:00 26 30 mph 1027.8mb 56f
8:00 30 33 mph 1027.1mb 56f
7:00 26 29 mph 1026.6mb 55f
6:00 25 29 mph 1026.2mb 56f
5:00 28 31 mph 1025.6mb 56f
4:00 28 31 mph 1025.3mb 55f
3:00 29 31 mph 1025.1mb 55f
2:00 23 25 mph 1025.2mb 54f
1:00 28 29 mph 1024.9mb 53f
12:00 28 30 mph 1025.1mb 53f
11:00 25 28 mph 1025.2mb 52f
10:00 26 30 mph 1024.9mb 51f
9:00 26 29 mph 1024.4mb 51f
8:00 25 26 mph 1023.7mb 52f
7:00 20 25 mph 1022.9mb 52f
6:00 23 26 mph 1021.8mb 53f
5:00 23 26 mph 1021.2mb 53f
4:00 22 24 mph 1020.5mb 53f
3:00 22 24 mph 1019.9mb 53f
2:00 21 22 mph 1019.6mb 53f
1:00 24 25 mph 1019.1mb 55f
12:00 22 23 mph 1018.6mb 55f
Ter 09/27 11:00 24 25 mph 1017.6mb 55f
10:00 15 16 mph 1017.1mb 56f
9:00 16 18 mph 1015.7mb 56f